Time;durP1;ratioP1;P1;durP2;ratioP2;P2;SDS_P1;SDS_P2;PMS_P1;PMS_P2;Temp;Humidity;BMP_temperature;BMP_pressure;BME280_temperature;BME280_humidity;BME280_pressure;Samples;Min_cycle;Max_cycle;Signal;HPM_P1;HPM_P2
2022/10/30 00:00:27;;;;;;;0.50;0.50;;;20.90;71.70;;;;;;4984953;28;20038;-19
2022/10/30 00:02:53;;;;;;;0.40;0.40;;;20.90;71.70;;;;;;4980035;28;20057;-18
2022/10/30 00:05:19;;;;;;;0.45;0.43;;;20.90;71.70;;;;;;4980025;28;20042;-18
2022/10/30 00:07:45;;;;;;;0.40;0.40;;;20.90;71.70;;;;;;4983906;28;20066;-19
2022/10/30 00:10:11;;;;;;;0.63;0.43;;;20.90;71.70;;;;;;4985315;28;20042;-18
2022/10/30 00:12:37;;;;;;;0.50;0.32;;;20.90;72.50;;;;;;4983213;28;20042;-18
2022/10/30 00:15:02;;;;;;;0.35;0.35;;;20.90;71.70;;;;;;4987210;28;20046;-18
2022/10/30 00:17:28;;;;;;;0.50;0.50;;;20.90;71.80;;;;;;4998444;28;20128;-18
2022/10/30 00:19:54;;;;;;;0.77;0.38;;;20.90;71.70;;;;;;4999408;28;20127;-18
2022/10/30 00:22:19;;;;;;;0.50;0.47;;;20.90;71.80;;;;;;4998248;28;20396;-19
2022/10/30 00:24:45;;;;;;;0.40;0.40;;;20.90;71.60;;;;;;5008147;28;20053;-25
2022/10/30 00:27:10;;;;;;;0.22;0.22;;;20.90;71.60;;;;;;5005330;28;20530;-19
2022/10/30 00:29:36;;;;;;;0.30;0.25;;;20.90;71.60;;;;;;5005885;28;20061;-19
2022/10/30 00:32:01;;;;;;;0.32;0.32;;;20.90;71.70;;;;;;5006611;28;20099;-19
2022/10/30 00:34:27;;;;;;;0.43;0.38;;;20.90;71.60;;;;;;5012181;28;20057;-20
2022/10/30 00:36:52;;;;;;;0.50;0.50;;;20.90;71.70;;;;;;5000746;28;20049;-18
2022/10/30 00:39:18;;;;;;;0.35;0.35;;;20.90;71.70;;;;;;5005786;28;20080;-37
2022/10/30 00:41:45;;;;;;;0.38;0.35;;;20.90;71.60;;;;;;5002841;28;20514;-34
2022/10/30 00:44:43;;;;;;;0.32;0.32;;;20.90;71.60;;;;;;5003056;28;20088;-38
2022/10/30 00:47:28;;;;;;;0.60;0.40;;;21.00;71.70;;;;;;5008712;28;20049;-38
2022/10/30 00:50:29;;;;;;;0.40;0.40;;;21.00;71.60;;;;;;4999266;28;20200;-36
2022/10/30 00:53:01;;;;;;;0.50;0.50;;;20.90;71.50;;;;;;5000455;28;20070;-37
2022/10/30 00:55:38;;;;;;;0.30;0.30;;;20.90;71.50;;;;;;4981607;28;20043;-38
2022/10/30 00:58:06;;;;;;;0.68;0.40;;;20.90;71.60;;;;;;5008491;28;20049;-42
2022/10/30 01:00:32;;;;;;;0.40;0.40;;;20.90;71.50;;;;;;5003439;28;20046;-45
2022/10/30 01:02:57;;;;;;;0.50;0.40;;;20.90;71.50;;;;;;5014181;28;20052;-40
2022/10/30 01:05:24;;;;;;;2.03;0.35;;;20.90;71.50;;;;;;5009510;28;20095;-39
2022/10/30 01:07:49;;;;;;;0.40;0.40;;;20.90;71.70;;;;;;5007737;28;20049;-39
2022/10/30 01:10:15;;;;;;;0.20;0.20;;;20.90;71.60;;;;;;5015802;28;20046;-34
2022/10/30 01:12:41;;;;;;;0.50;0.38;;;20.90;71.70;;;;;;5018146;28;20037;-36
2022/10/30 01:15:07;;;;;;;0.73;0.50;;;20.90;71.60;;;;;;5006312;28;20050;-36
2022/10/30 01:18:10;;;;;;;0.50;0.40;;;20.90;71.70;;;;;;5022817;28;20100;-39
2022/10/30 01:20:59;;;;;;;0.40;0.40;;;20.90;71.90;;;;;;5015917;28;20073;-37
2022/10/30 01:23:35;;;;;;;0.40;0.40;;;20.80;71.70;;;;;;5009672;28;20092;-34
2022/10/30 01:26:10;;;;;;;0.30;0.30;;;20.80;71.90;;;;;;5007550;28;20565;-39
2022/10/30 01:29:13;;;;;;;0.63;0.40;;;20.80;72.10;;;;;;5007299;28;20034;-35
2022/10/30 01:31:42;;;;;;;0.38;0.30;;;20.80;72.10;;;;;;5002195;28;20561;-36
2022/10/30 01:34:19;;;;;;;0.40;0.30;;;20.80;71.90;;;;;;5004046;28;20120;-39
2022/10/30 01:36:54;;;;;;;0.30;0.30;;;20.80;71.80;;;;;;4992852;28;20389;-33
2022/10/30 01:39:25;;;;;;;0.32;0.32;;;20.80;71.90;;;;;;5009306;28;20038;-35
2022/10/30 01:41:51;;;;;;;0.43;0.30;;;20.80;72.00;;;;;;5003325;28;20524;-41
2022/10/30 01:44:28;;;;;;;0.25;0.25;;;20.80;72.00;;;;;;5010151;28;20112;-34
2022/10/30 01:47:19;;;;;;;0.50;0.50;;;20.80;72.00;;;;;;4994683;28;20057;-36
2022/10/30 01:49:57;;;;;;;0.43;0.43;;;20.70;72.10;;;;;;5003480;28;20054;-36
2022/10/30 01:52:38;;;;;;;0.30;0.30;;;20.70;72.20;;;;;;5000952;28;20046;-36
2022/10/30 01:55:23;;;;;;;0.30;0.30;;;20.80;72.10;;;;;;5010864;28;20041;-34
2022/10/30 01:57:52;;;;;;;0.43;0.40;;;20.80;72.10;;;;;;5003706;28;20537;-36
2022/10/30 02:00:19;;;;;;;0.47;0.30;;;20.70;72.10;;;;;;4994272;28;20074;-34
2022/10/30 02:02:44;;;;;;;0.43;0.38;;;20.80;72.10;;;;;;5005865;28;20073;-37
2022/10/30 02:05:12;;;;;;;0.30;0.30;;;20.70;72.20;;;;;;5008857;28;20046;-34
2022/10/30 02:07:38;;;;;;;0.30;0.30;;;20.70;72.30;;;;;;4999606;28;20042;-34
2022/10/30 02:10:03;;;;;;;0.38;0.35;;;20.70;72.30;;;;;;5015807;28;20049;-36
2022/10/30 02:12:29;;;;;;;0.30;0.30;;;20.70;72.30;;;;;;5012634;28;20583;-36
2022/10/30 02:14:57;;;;;;;0.68;0.55;;;20.70;72.40;;;;;;5006323;28;20042;-35
2022/10/30 02:17:23;;;;;;;0.30;0.30;;;20.70;72.30;;;;;;4993408;28;20026;-40
2022/10/30 02:19:48;;;;;;;0.20;0.20;;;20.70;73.10;;;;;;4991700;28;20046;-37
2022/10/30 02:22:15;;;;;;;0.52;0.40;;;20.70;72.60;;;;;;5010605;28;20050;-34
2022/10/30 02:24:41;;;;;;;0.30;0.22;;;20.70;72.60;;;;;;5009181;28;20056;-38
2022/10/30 02:27:06;;;;;;;0.22;0.22;;;20.70;72.60;;;;;;5015718;28;20497;-37
2022/10/30 02:29:32;;;;;;;0.30;0.30;;;20.70;72.60;;;;;;5019412;28;20080;-37
2022/10/30 02:31:57;;;;;;;0.30;0.28;;;20.70;72.60;;;;;;5012475;28;20127;-39
2022/10/30 02:34:23;;;;;;;0.30;0.30;;;20.70;72.60;;;;;;5017079;28;20041;-34
2022/10/30 02:36:49;;;;;;;0.30;0.30;;;20.70;72.60;;;;;;5011271;28;20042;-38
2022/10/30 02:39:14;;;;;;;0.60;0.40;;;20.70;72.60;;;;;;5017265;28;20132;-36
2022/10/30 02:41:40;;;;;;;0.30;0.30;;;20.70;72.60;;;;;;5014849;28;20064;-34
2022/10/30 02:44:05;;;;;;;0.82;0.22;;;20.70;72.80;;;;;;5007514;28;20065;-33
2022/10/30 02:46:32;;;;;;;0.28;0.25;;;20.70;72.60;;;;;;5008532;28;20046;-36
2022/10/30 02:48:57;;;;;;;0.50;0.35;;;20.70;72.70;;;;;;5011067;28;20380;-36
2022/10/30 02:51:23;;;;;;;0.43;0.30;;;20.70;73.00;;;;;;5020888;28;20042;-38
2022/10/30 02:53:49;;;;;;;0.65;0.40;;;20.70;73.10;;;;;;5016078;28;22354;-38
2022/10/30 02:56:14;;;;;;;0.47;0.30;;;20.70;73.20;;;;;;5002378;28;20046;-40
2022/10/30 02:58:40;;;;;;;0.55;0.38;;;20.60;73.00;;;;;;4996891;28;20121;-39
2022/10/30 03:01:07;;;;;;;0.28;0.20;;;20.70;72.90;;;;;;4994349;28;20056;-33
2022/10/30 03:03:32;;;;;;;0.32;0.25;;;20.60;73.10;;;;;;4993050;28;20065;-38
2022/10/30 03:06:02;;;;;;;0.50;0.40;;;20.60;73.30;;;;;;4992797;28;20073;-33
2022/10/30 03:08:28;;;;;;;0.15;0.10;;;20.60;73.20;;;;;;5012840;28;20050;-36
2022/10/30 03:11:04;;;;;;;0.50;0.30;;;20.60;73.20;;;;;;5008158;28;20842;-34
2022/10/30 03:13:30;;;;;;;0.20;0.20;;;20.60;73.10;;;;;;5014251;28;20046;-37
2022/10/30 03:16:07;;;;;;;0.25;0.20;;;20.60;73.20;;;;;;5006882;28;20406;-36
2022/10/30 03:18:33;;;;;;;0.32;0.25;;;20.60;73.10;;;;;;5005047;28;20038;-35
2022/10/30 03:21:00;;;;;;;0.50;0.50;;;20.60;73.10;;;;;;4996522;28;20054;-37
2022/10/30 03:23:26;;;;;;;0.30;0.30;;;20.60;73.20;;;;;;4994564;28;20108;-36
2022/10/30 03:25:53;;;;;;;0.20;0.20;;;20.60;73.40;;;;;;4993688;28;20465;-35
2022/10/30 03:28:19;;;;;;;0.40;0.40;;;20.60;73.20;;;;;;5000814;28;20060;-40
2022/10/30 03:30:44;;;;;;;0.32;0.30;;;20.60;73.00;;;;;;5007603;28;20558;-37
2022/10/30 03:33:10;;;;;;;0.30;0.30;;;20.60;73.20;;;;;;5004420;28;20048;-35
2022/10/30 03:35:35;;;;;;;0.40;0.30;;;20.60;73.20;;;;;;5011602;28;20514;-35
2022/10/30 03:38:01;;;;;;;0.20;0.10;;;20.60;73.40;;;;;;4999934;28;20057;-34
2022/10/30 03:40:27;;;;;;;0.17;0.17;;;20.60;73.30;;;;;;5004002;28;20770;-36
2022/10/30 03:42:52;;;;;;;0.20;0.20;;;20.60;73.30;;;;;;4996041;28;20057;-36
2022/10/30 03:45:18;;;;;;;0.10;0.10;;;20.60;73.10;;;;;;5004494;28;20069;-39
2022/10/30 03:47:43;;;;;;;0.30;0.30;;;20.60;74.00;;;;;;5013580;28;20050;-44
2022/10/30 03:50:09;;;;;;;1.00;0.20;;;20.50;73.20;;;;;;5011029;28;20068;-36
2022/10/30 03:52:34;;;;;;;0.65;0.30;;;20.60;73.10;;;;;;5009003;28;20507;-36
2022/10/30 03:55:00;;;;;;;0.30;0.30;;;20.60;73.10;;;;;;5009218;28;20045;-37
2022/10/30 03:57:26;;;;;;;0.28;0.22;;;20.60;73.00;;;;;;5004523;28;20046;-33
2022/10/30 03:59:51;;;;;;;0.45;0.38;;;20.50;73.10;;;;;;4991621;28;20537;-36
2022/10/30 04:02:17;;;;;;;0.38;0.30;;;20.50;73.20;;;;;;5004777;28;20049;-33
2022/10/30 04:04:42;;;;;;;0.30;0.30;;;20.50;73.30;;;;;;5008699;28;20073;-38
2022/10/30 04:07:08;;;;;;;0.57;0.30;;;20.50;74.10;;;;;;5010099;28;20054;-37
2022/10/30 04:09:33;;;;;;;0.95;0.40;;;20.50;73.30;;;;;;5008562;28;20092;-38
2022/10/30 04:11:59;;;;;;;0.30;0.30;;;20.50;73.30;;;;;;5010711;28;20499;-33
2022/10/30 04:14:24;;;;;;;0.55;0.30;;;20.50;73.20;;;;;;5013878;28;20040;-36
2022/10/30 04:16:50;;;;;;;0.20;0.13;;;20.50;73.30;;;;;;5011707;28;20410;-36
2022/10/30 04:19:15;;;;;;;0.60;0.35;;;20.50;73.20;;;;;;5002959;28;20053;-37
2022/10/30 04:21:42;;;;;;;0.38;0.30;;;20.50;73.40;;;;;;4993540;28;20104;-37
2022/10/30 04:24:08;;;;;;;0.43;0.40;;;20.50;73.30;;;;;;5011456;28;20041;-37
2022/10/30 04:26:33;;;;;;;0.40;0.28;;;20.50;73.40;;;;;;5010154;28;20056;-35
2022/10/30 04:28:59;;;;;;;0.50;0.30;;;20.50;73.30;;;;;;5010512;28;20457;-36
2022/10/30 04:31:25;;;;;;;0.40;0.30;;;20.50;73.40;;;;;;5002991;28;20121;-38
2022/10/30 04:33:50;;;;;;;0.68;0.32;;;20.50;73.40;;;;;;5009989;28;20041;-36
2022/10/30 04:36:17;;;;;;;0.30;0.20;;;20.50;73.50;;;;;;5010183;28;20588;-37
2022/10/30 04:38:42;;;;;;;0.38;0.38;;;20.50;73.70;;;;;;5010432;28;20422;-37
2022/10/30 04:41:08;;;;;;;0.30;0.30;;;20.50;73.30;;;;;;4998704;28;20080;-36
2022/10/30 04:43:34;;;;;;;0.63;0.32;;;20.50;73.50;;;;;;4992653;28;20133;-39
2022/10/30 04:46:03;;;;;;;0.40;0.40;;;20.50;73.60;;;;;;4994018;28;20050;-35
2022/10/30 04:48:29;;;;;;;0.40;0.30;;;20.50;73.50;;;;;;4994789;28;20034;-36
2022/10/30 04:50:57;;;;;;;0.40;0.35;;;20.40;73.60;;;;;;4993104;28;20045;-35
2022/10/30 04:53:23;;;;;;;0.22;0.22;;;20.40;73.50;;;;;;4995188;28;20035;-36
2022/10/30 04:55:52;;;;;;;0.30;0.20;;;20.40;73.60;;;;;;4992457;28;20116;-34
2022/10/30 04:58:18;;;;;;;0.10;0.10;;;20.40;73.70;;;;;;5012360;28;20399;-38
2022/10/30 05:00:43;;;;;;;0.32;0.30;;;20.40;73.60;;;;;;5007927;28;20047;-37
2022/10/30 05:03:15;;;;;;;0.30;0.30;;;20.40;73.50;;;;;;5012239;28;20558;-39
2022/10/30 05:05:41;;;;;;;0.30;0.30;;;20.40;73.50;;;;;;5008344;28;20060;-34
2022/10/30 05:08:07;;;;;;;0.20;0.20;;;20.40;73.40;;;;;;5012652;28;20479;-36
2022/10/30 05:10:33;;;;;;;0.70;0.10;;;20.40;73.50;;;;;;5027659;28;20065;-37
2022/10/30 05:12:58;;;;;;;0.20;0.20;;;20.50;73.30;;;;;;5006914;28;20081;-39
2022/10/30 05:15:24;;;;;;;0.20;0.20;;;20.40;73.40;;;;;;5012647;28;20447;-35
2022/10/30 05:17:51;;;;;;;0.60;0.40;;;20.40;73.40;;;;;;5001139;28;20672;-37
2022/10/30 05:20:17;;;;;;;0.10;0.10;;;20.40;73.00;;;;;;5004258;28;20407;-37
2022/10/30 05:22:42;;;;;;;0.28;0.20;;;20.40;73.10;;;;;;5008132;28;20048;-36
2022/10/30 05:25:08;;;;;;;0.32;0.30;;;20.50;73.20;;;;;;5013454;28;20088;-38
2022/10/30 05:27:33;;;;;;;0.30;0.30;;;20.40;73.20;;;;;;4994093;28;20042;-38
2022/10/30 05:29:59;;;;;;;0.60;0.30;;;20.40;73.40;;;;;;4991500;28;20057;-36
2022/10/30 05:32:25;;;;;;;0.28;0.20;;;20.40;73.30;;;;;;4992893;28;20467;-38
2022/10/30 05:34:50;;;;;;;0.22;0.20;;;20.40;73.40;;;;;;5004547;28;20058;-39
2022/10/30 05:37:16;;;;;;;0.20;0.20;;;20.40;73.50;;;;;;5010785;28;20748;-38
2022/10/30 05:39:41;;;;;;;0.28;0.28;;;20.40;73.30;;;;;;5009500;28;20046;-36
2022/10/30 05:42:07;;;;;;;0.57;0.30;;;20.40;74.10;;;;;;5009367;28;20097;-36
2022/10/30 05:44:32;;;;;;;0.17;0.13;;;20.40;73.40;;;;;;4658444;28;10000412;-38
2022/10/30 05:46:58;;;;;;;0.32;0.22;;;20.40;74.10;;;;;;5003535;28;20056;-33
2022/10/30 05:49:23;;;;;;;0.30;0.30;;;20.50;73.20;;;;;;5003897;28;20265;-36
2022/10/30 05:51:49;;;;;;;0.30;0.20;;;20.40;73.00;;;;;;4638733;28;10000285;-35
2022/10/30 05:54:14;;;;;;;0.22;0.22;;;20.40;73.20;;;;;;4989807;28;20060;-36
2022/10/30 05:56:41;;;;;;;0.30;0.30;;;20.40;73.50;;;;;;4987874;28;20046;-39
2022/10/30 05:59:06;;;;;;;0.30;0.20;;;20.50;73.50;;;;;;5006579;28;20494;-34
2022/10/30 06:01:32;;;;;;;0.20;0.20;;;20.50;73.90;;;;;;5008434;28;20144;-34
2022/10/30 06:03:57;;;;;;;0.20;0.20;;;20.50;73.30;;;;;;5012597;28;20519;-37
2022/10/30 06:06:23;;;;;;;0.20;0.20;;;20.50;73.20;;;;;;5009955;28;20042;-36
2022/10/30 06:08:49;;;;;;;0.25;0.25;;;20.50;73.20;;;;;;5008841;28;20071;-39
2022/10/30 06:11:14;;;;;;;0.30;0.30;;;20.50;73.10;;;;;;5012297;28;20045;-38
2022/10/30 06:13:40;;;;;;;0.90;0.30;;;20.50;72.80;;;;;;4997730;28;20534;-37
2022/10/30 06:16:05;;;;;;;0.30;0.20;;;20.50;72.80;;;;;;4989966;28;20096;-38
2022/10/30 06:18:31;;;;;;;0.13;0.10;;;20.50;72.70;;;;;;4986981;28;20109;-38
2022/10/30 06:20:57;;;;;;;0.30;0.30;;;20.60;72.70;;;;;;4988769;28;20572;-38
2022/10/30 06:23:22;;;;;;;0.30;0.30;;;20.50;72.70;;;;;;4994629;28;20049;-39
2022/10/30 06:25:48;;;;;;;0.30;0.20;;;20.60;72.30;;;;;;5006703;28;20103;-36
2022/10/30 06:28:13;;;;;;;0.20;0.20;;;20.60;72.10;;;;;;5003970;28;20068;-36
2022/10/30 06:30:39;;;;;;;0.32;0.20;;;20.60;72.00;;;;;;5010596;28;20073;-36
2022/10/30 06:33:05;;;;;;;0.20;0.10;;;20.60;71.90;;;;;;5009903;28;20519;-37
2022/10/30 06:35:30;;;;;;;0.60;0.10;;;20.60;72.50;;;;;;4999390;28;20125;-36
2022/10/30 06:37:58;;;;;;;0.25;0.10;;;20.60;72.30;;;;;;4991728;28;20220;-22
2022/10/30 06:40:24;;;;;;;0.10;0.10;;;20.60;71.80;;;;;;5005280;28;20030;-21
2022/10/30 06:42:51;;;;;;;0.20;0.20;;;20.60;71.80;;;;;;5002337;28;20041;-21
2022/10/30 06:45:18;;;;;;;0.22;0.22;;;20.60;72.10;;;;;;5009003;28;20064;-23
2022/10/30 06:47:43;;;;;;;0.20;0.20;;;20.60;71.80;;;;;;5005393;28;20062;-17
2022/10/30 06:50:11;;;;;;;0.20;0.10;;;20.60;72.00;;;;;;5009382;28;20831;-22
2022/10/30 06:52:37;;;;;;;0.22;0.22;;;20.60;72.00;;;;;;5007699;28;20128;-22
2022/10/30 06:55:03;;;;;;;0.10;0.10;;;20.60;71.80;;;;;;5009129;28;20050;-22
2022/10/30 06:57:28;;;;;;;0.17;0.17;;;20.70;71.80;;;;;;5008681;28;20057;-22
2022/10/30 06:59:54;;;;;;;0.30;0.30;;;20.70;72.50;;;;;;5006605;28;20436;-21
2022/10/30 07:02:19;;;;;;;0.17;0.17;;;20.70;71.60;;;;;;5009944;28;20107;-21
2022/10/30 07:04:45;;;;;;;0.30;0.17;;;20.60;71.60;;;;;;5011351;28;20053;-22
2022/10/30 07:07:14;;;;;;;0.30;0.30;;;20.70;71.50;;;;;;5006405;28;20115;-21
2022/10/30 07:09:40;;;;;;;0.20;0.13;;;20.70;71.50;;;;;;5011447;28;20132;-30
2022/10/30 07:12:06;;;;;;;0.20;0.20;;;20.70;71.50;;;;;;5013446;28;20051;-22
2022/10/30 07:14:31;;;;;;;0.57;0.15;;;20.70;71.60;;;;;;5004160;28;20131;-22
2022/10/30 07:16:57;;;;;;;0.10;0.10;;;20.70;71.50;;;;;;5008302;28;20100;-22
2022/10/30 07:19:23;;;;;;;0.20;0.20;;;20.60;71.60;;;;;;5008916;28;20037;-22
2022/10/30 07:21:48;;;;;;;0.20;0.20;;;20.60;71.60;;;;;;5009449;28;20042;-23
2022/10/30 07:24:14;;;;;;;0.10;0.10;;;20.70;72.50;;;;;;5013818;28;20539;-22
2022/10/30 07:26:39;;;;;;;0.10;0.10;;;20.60;71.60;;;;;;5006970;28;20061;-21
2022/10/30 07:29:05;;;;;;;0.20;0.20;;;20.60;71.50;;;;;;5012129;28;20576;-21
2022/10/30 07:31:31;;;;;;;0.30;0.10;;;20.70;71.60;;;;;;5008997;28;20064;-21
2022/10/30 07:33:56;;;;;;;0.10;0.10;;;20.70;71.60;;;;;;5012438;28;20136;-22
2022/10/30 07:36:22;;;;;;;0.10;0.10;;;20.60;71.60;;;;;;5004627;28;20046;-22
2022/10/30 07:38:48;;;;;;;0.40;0.20;;;20.60;71.60;;;;;;5012018;28;20038;-24
2022/10/30 07:41:14;;;;;;;0.10;0.10;;;20.60;71.60;;;;;;5013177;28;20099;-21
2022/10/30 07:43:39;;;;;;;0.10;0.10;;;20.70;71.70;;;;;;5008258;28;20075;-30
2022/10/30 07:46:05;;;;;;;0.10;0.10;;;20.70;71.60;;;;;;5012426;28;20130;-21
2022/10/30 07:48:30;;;;;;;0.10;0.10;;;20.60;71.50;;;;;;5003586;28;20038;-23
2022/10/30 07:50:56;;;;;;;0.10;0.10;;;20.70;71.50;;;;;;4999659;28;20149;-21
2022/10/30 07:53:22;;;;;;;0.10;0.10;;;20.70;71.50;;;;;;5009881;28;20067;-22
2022/10/30 07:55:47;;;;;;;0.50;0.20;;;20.60;71.40;;;;;;5008000;28;20057;-20
2022/10/30 07:58:13;;;;;;;0.10;0.10;;;20.70;71.50;;;;;;5010127;28;20459;-23
2022/10/30 08:00:38;;;;;;;0.47;0.17;;;20.60;71.50;;;;;;4999565;28;20045;-22
2022/10/30 08:03:05;;;;;;;0.10;0.10;;;20.70;71.30;;;;;;5011017;28;20052;-24
2022/10/30 08:05:30;;;;;;;0.10;0.10;;;20.70;71.20;;;;;;5001377;28;20056;-22
2022/10/30 08:07:56;;;;;;;0.30;0.20;;;20.70;71.30;;;;;;4997882;28;20042;-24
2022/10/30 08:10:21;;;;;;;0.43;0.10;;;20.70;71.30;;;;;;5005857;28;20380;-22
2022/10/30 08:12:47;;;;;;;1.23;0.20;;;20.60;71.40;;;;;;5006914;28;20519;-22
2022/10/30 08:15:13;;;;;;;0.28;0.20;;;20.70;71.50;;;;;;5006539;28;20046;-21
2022/10/30 08:17:43;;;;;;;0.10;0.10;;;20.70;71.50;;;;;;5003347;28;20503;-21
2022/10/30 08:20:10;;;;;;;0.15;0.10;;;20.70;71.40;;;;;;5009027;28;20094;-27
2022/10/30 08:22:52;;;;;;;0.10;0.10;;;20.70;71.40;;;;;;5006813;28;20122;-22
2022/10/30 08:25:18;;;;;;;0.20;0.20;;;20.60;71.40;;;;;;5005761;28;20045;-22
2022/10/30 08:27:57;;;;;;;0.20;0.10;;;20.60;71.30;;;;;;5010078;28;20080;-22
2022/10/30 08:30:24;;;;;;;0.10;0.10;;;20.70;71.30;;;;;;4985875;28;20034;-21
2022/10/30 08:32:50;;;;;;;0.55;0.15;;;20.70;71.40;;;;;;4984494;28;20140;-16
2022/10/30 08:35:16;;;;;;;0.30;0.20;;;20.70;71.40;;;;;;4982963;28;21050;-24
2022/10/30 08:37:42;;;;;;;0.10;0.10;;;20.70;71.40;;;;;;4982852;28;20109;-24
2022/10/30 08:40:09;;;;;;;0.10;0.10;;;20.70;71.30;;;;;;4986186;28;20192;-21
2022/10/30 08:42:34;;;;;;;0.30;0.10;;;20.60;71.30;;;;;;4982663;28;20065;-23
2022/10/30 08:45:00;;;;;;;0.10;0.10;;;20.60;71.30;;;;;;4982354;28;20050;-21
2022/10/30 08:47:26;;;;;;;0.20;0.20;;;20.60;71.30;;;;;;4984200;28;20050;-27
2022/10/30 08:49:51;;;;;;;0.10;0.10;;;20.70;71.30;;;;;;4984434;28;20610;-21
2022/10/30 08:52:17;;;;;;;1.05;0.40;;;20.70;71.30;;;;;;4982675;28;20581;-21
2022/10/30 08:54:42;;;;;;;0.20;0.20;;;20.70;71.30;;;;;;4987202;28;20068;-22
2022/10/30 08:57:08;;;;;;;0.20;0.15;;;20.70;71.40;;;;;;4980903;28;20046;-26
2022/10/30 08:59:33;;;;;;;0.20;0.20;;;20.70;71.30;;;;;;4983108;28;20415;-26
2022/10/30 09:01:59;;;;;;;0.10;0.10;;;20.60;71.30;;;;;;4978220;28;20054;-27
2022/10/30 09:04:24;;;;;;;0.43;0.20;;;20.70;71.40;;;;;;4982814;28;20057;-21
2022/10/30 09:06:50;;;;;;;0.20;0.17;;;20.70;71.30;;;;;;4984358;28;20043;-22
2022/10/30 09:09:16;;;;;;;0.00;0.00;;;20.70;71.00;;;;;;4985058;28;20052;-27
2022/10/30 09:11:41;;;;;;;0.32;0.17;;;20.70;71.20;;;;;;4986630;28;20057;-22
2022/10/30 09:14:07;;;;;;;0.40;0.20;;;20.70;71.20;;;;;;4982886;28;20050;-21
2022/10/30 09:16:32;;;;;;;1.20;0.10;;;20.70;71.20;;;;;;4990123;28;20418;-24
2022/10/30 09:18:58;;;;;;;0.05;0.03;;;20.70;71.20;;;;;;4992357;28;20045;-22
2022/10/30 09:21:23;;;;;;;0.20;0.05;;;20.70;71.30;;;;;;4993286;28;20388;-21
2022/10/30 09:23:49;;;;;;;0.03;0.03;;;20.60;71.40;;;;;;4986303;28;20101;-22
2022/10/30 09:26:14;;;;;;;0.32;0.10;;;20.60;71.50;;;;;;4990847;28;20038;-21
2022/10/30 09:28:40;;;;;;;0.20;0.20;;;20.60;71.60;;;;;;4988592;28;20038;-22
2022/10/30 09:31:06;;;;;;;0.30;0.10;;;20.50;71.50;;;;;;4995182;28;20503;-22
2022/10/30 09:33:31;;;;;;;0.13;0.10;;;20.50;71.50;;;;;;4994595;28;20042;-22
2022/10/30 09:35:57;;;;;;;0.50;0.20;;;20.60;71.30;;;;;;4993862;28;20404;-27
2022/10/30 09:38:22;;;;;;;0.93;0.10;;;20.60;71.30;;;;;;4998599;28;20042;-23
2022/10/30 09:40:51;;;;;;;0.32;0.13;;;20.60;71.20;;;;;;4995964;28;20514;-23
2022/10/30 09:43:34;;;;;;;0.10;0.10;;;20.60;71.00;;;;;;4997809;28;20075;-22
2022/10/30 09:46:08;;;;;;;0.10;0.10;;;20.60;70.90;;;;;;4997173;28;20038;-22
2022/10/30 09:48:43;;;;;;;0.10;0.00;;;20.50;70.70;;;;;;4996735;28;20518;-23
2022/10/30 09:51:24;;;;;;;0.32;0.10;;;20.50;70.90;;;;;;5004055;28;20460;-21
2022/10/30 09:53:50;;;;;;;0.13;0.10;;;20.50;70.80;;;;;;5011132;28;20046;-22
2022/10/30 09:56:35;;;;;;;0.10;0.10;;;20.50;70.90;;;;;;5004425;28;20391;-23
2022/10/30 09:59:19;;;;;;;0.52;0.13;;;20.50;71.10;;;;;;4998242;28;20073;-28
2022/10/30 10:01:56;;;;;;;3.10;0.43;;;20.50;71.10;;;;;;5018797;28;20584;-21
2022/10/30 10:04:39;;;;;;;0.28;0.22;;;20.50;70.90;;;;;;5006873;28;20052;-23
2022/10/30 10:07:15;;;;;;;0.35;0.20;;;20.50;70.90;;;;;;5009800;28;20030;-22
2022/10/30 10:09:41;;;;;;;0.28;0.10;;;20.50;70.90;;;;;;5014162;28;20038;-22
2022/10/30 10:12:09;;;;;;;0.32;0.17;;;20.50;71.70;;;;;;5006777;28;20402;-22
2022/10/30 10:14:36;;;;;;;0.40;0.10;;;20.50;71.80;;;;;;5020358;28;20128;-31
2022/10/30 10:17:03;;;;;;;0.22;0.20;;;20.50;71.30;;;;;;5006291;28;20092;-22
2022/10/30 10:19:37;;;;;;;0.45;0.20;;;20.50;71.10;;;;;;5002514;28;20168;-22
2022/10/30 10:22:04;;;;;;;0.20;0.10;;;20.50;71.20;;;;;;5007876;28;20526;-22
2022/10/30 10:24:35;;;;;;;0.10;0.10;;;20.50;71.30;;;;;;5010903;28;20279;-28
2022/10/30 10:27:22;;;;;;;0.20;0.20;;;20.50;71.30;;;;;;5012932;28;20034;-23
2022/10/30 10:30:08;;;;;;;0.00;0.00;;;20.40;71.30;;;;;;5007876;28;20096;-22
2022/10/30 10:32:59;;;;;;;0.28;0.10;;;20.50;71.30;;;;;;5015205;28;20442;-22
2022/10/30 10:35:49;;;;;;;0.15;0.15;;;20.40;71.20;;;;;;5013385;28;20053;-22
2022/10/30 10:38:30;;;;;;;0.20;0.10;;;20.50;71.30;;;;;;5015161;28;20049;-22
2022/10/30 10:41:02;;;;;;;0.10;0.10;;;20.50;71.40;;;;;;5010400;28;20041;-24
2022/10/30 10:43:39;;;;;;;0.20;0.10;;;20.50;71.40;;;;;;5002664;28;20073;-26
2022/10/30 10:46:17;;;;;;;0.17;0.00;;;20.50;71.40;;;;;;5020978;28;20038;-22
2022/10/30 10:48:57;;;;;;;0.25;0.10;;;20.50;71.30;;;;;;5013700;28;20041;-24
2022/10/30 10:51:24;;;;;;;0.20;0.10;;;20.50;71.40;;;;;;5007521;28;20046;-27
2022/10/30 10:53:55;;;;;;;0.10;0.00;;;20.50;71.30;;;;;;4999426;28;20931;-24
2022/10/30 10:56:23;;;;;;;0.32;0.15;;;20.50;71.20;;;;;;4994746;28;20125;-23
2022/10/30 10:58:52;;;;;;;0.30;0.10;;;20.50;72.00;;;;;;4994885;28;20049;-22
2022/10/30 11:01:20;;;;;;;0.28;0.10;;;20.60;71.10;;;;;;4995149;28;20050;-21
2022/10/30 11:03:52;;;;;;;0.20;0.20;;;20.50;71.10;;;;;;5002062;28;20049;-21
2022/10/30 11:06:23;;;;;;;0.28;0.10;;;20.50;71.30;;;;;;4998145;28;20034;-22
2022/10/30 11:08:49;;;;;;;0.20;0.10;;;20.50;71.40;;;;;;4998232;28;20054;-25
2022/10/30 11:11:14;;;;;;;0.40;0.10;;;20.50;71.40;;;;;;4994727;28;20350;-21
2022/10/30 11:13:41;;;;;;;0.25;0.10;;;20.50;71.30;;;;;;4997538;28;20054;-22
2022/10/30 11:16:26;;;;;;;0.20;0.10;;;20.60;71.50;;;;;;4994926;28;20046;-27
2022/10/30 11:18:55;;;;;;;0.38;0.30;;;20.50;71.20;;;;;;4994992;28;20128;-23
2022/10/30 11:21:24;;;;;;;0.20;0.20;;;20.60;71.30;;;;;;4990048;28;20084;-23
2022/10/30 11:23:50;;;;;;;0.25;0.10;;;20.60;71.10;;;;;;4993997;28;20176;-22
2022/10/30 11:26:19;;;;;;;0.08;0.05;;;20.60;71.50;;;;;;4997374;28;20129;-22
2022/10/30 11:28:49;;;;;;;0.00;0.00;;;20.50;71.30;;;;;;4996214;28;20409;-25
2022/10/30 11:31:33;;;;;;;0.10;0.10;;;20.50;71.50;;;;;;4994160;28;20053;-22
2022/10/30 11:34:17;;;;;;;0.03;0.00;;;20.50;71.60;;;;;;4996273;28;20057;-22
2022/10/30 11:36:43;;;;;;;0.35;0.20;;;20.60;71.30;;;;;;5024399;28;20096;-21
2022/10/30 11:39:19;;;;;;;0.10;0.10;;;20.60;71.20;;;;;;5015662;28;20121;-22
2022/10/30 11:42:13;;;;;;;0.13;0.10;;;20.50;71.50;;;;;;5018817;28;20041;-21
2022/10/30 11:44:48;;;;;;;0.00;0.00;;;20.60;71.20;;;;;;5018771;28;20128;-22
2022/10/30 11:47:14;;;;;;;0.10;0.10;;;20.60;71.10;;;;;;5006790;28;22166;-23
2022/10/30 11:49:43;;;;;;;0.13;0.13;;;20.60;71.10;;;;;;4992383;28;20049;-22
2022/10/30 11:52:09;;;;;;;0.10;0.10;;;20.60;70.90;;;;;;5002324;28;20039;-22
2022/10/30 11:54:38;;;;;;;0.40;0.40;;;20.60;71.10;;;;;;5009833;28;20053;-22
2022/10/30 11:57:04;;;;;;;0.30;0.30;;;20.60;71.10;;;;;;5006628;28;20449;-22
2022/10/30 11:59:30;;;;;;;0.10;0.10;;;20.60;71.10;;;;;;5011609;28;20514;-22
2022/10/30 12:02:02;;;;;;;0.08;0.08;;;20.60;71.10;;;;;;5014313;28;20121;-22
2022/10/30 12:04:28;;;;;;;0.30;0.20;;;20.60;71.20;;;;;;5010641;28;20050;-23
2022/10/30 12:07:22;;;;;;;0.10;0.00;;;20.60;71.30;;;;;;5007419;28;20407;-22
2022/10/30 12:09:48;;;;;;;0.32;0.20;;;20.60;71.20;;;;;;5011278;28;20069;-22
2022/10/30 12:12:30;;;;;;;0.20;0.20;;;20.60;71.10;;;;;;5015359;28;20498;-21
2022/10/30 12:14:57;;;;;;;0.17;0.00;;;20.60;71.10;;;;;;5008466;28;20128;-22
2022/10/30 12:17:22;;;;;;;0.00;0.00;;;20.60;71.10;;;;;;5005797;28;20083;-22
2022/10/30 12:19:50;;;;;;;0.20;0.20;;;20.60;71.10;;;;;;5014185;28;20050;-22
2022/10/30 12:22:32;;;;;;;0.13;0.13;;;20.60;71.30;;;;;;5001776;28;20054;-22
2022/10/30 12:25:14;;;;;;;0.10;0.00;;;20.60;71.10;;;;;;5016025;28;20132;-21
2022/10/30 12:27:39;;;;;;;0.10;0.10;;;20.60;71.10;;;;;;4996470;28;20265;-22
2022/10/30 12:30:18;;;;;;;0.15;0.00;;;20.70;71.10;;;;;;5019621;28;20046;-23
2022/10/30 12:33:01;;;;;;;0.10;0.10;;;20.60;71.10;;;;;;5006552;28;20101;-23
2022/10/30 12:35:51;;;;;;;0.20;0.10;;;20.70;71.20;;;;;;5003211;28;20049;-24
2022/10/30 12:38:22;;;;;;;0.35;0.10;;;20.70;71.00;;;;;;5013710;28;20041;-24
2022/10/30 12:41:03;;;;;;;0.32;0.10;;;20.70;70.80;;;;;;5012137;28;20049;-23
2022/10/30 12:43:28;;;;;;;0.00;0.00;;;20.70;70.80;;;;;;5029458;28;20096;-24
2022/10/30 12:46:02;;;;;;;0.10;0.10;;;20.70;70.80;;;;;;5024963;28;20057;-24
2022/10/30 12:48:49;;;;;;;0.10;0.00;;;20.70;70.70;;;;;;5008547;28;20062;-29
2022/10/30 12:51:31;;;;;;;0.03;0.00;;;20.70;70.70;;;;;;5011735;28;20064;-22
2022/10/30 12:53:59;;;;;;;0.30;0.28;;;20.70;70.90;;;;;;5005654;28;20052;-24